Time;durP1;ratioP1;P1;durP2;ratioP2;P2;SDS_P1;SDS_P2;PMS_P1;PMS_P2;Temp;Humidity;BMP_temperature;BMP_pressure;BME280_temperature;BME280_humidity;BME280_pressure;Samples;Min_cycle;Max_cycle;Signal;HPM_P1;HPM_P2
2021/05/06 00:32:37;;;;;;;4.80;2.00;;;5.90;99.90;;;;;;5068227;28;20039;-59
2021/05/06 00:35:05;;;;;;;8.17;3.53;;;5.80;99.90;;;;;;5067228;28;20058;-59
2021/05/06 00:37:33;;;;;;;3.40;1.83;;;5.70;99.90;;;;;;5069083;28;20033;-59
2021/05/06 00:40:08;;;;;;;4.03;1.73;;;5.60;99.90;;;;;;5067756;28;20025;-58
2021/05/06 01:09:26;;;;;;;7.07;1.77;;;5.30;99.90;;;;;;5068336;28;20297;-58
2021/05/06 01:14:18;;;;;;;3.87;1.67;;;5.40;99.90;;;;;;5067898;28;21063;-58
2021/05/06 01:16:43;;;;;;;3.50;2.00;;;5.30;99.90;;;;;;5068152;28;20025;-59
2021/05/06 01:19:09;;;;;;;4.07;1.60;;;5.40;99.90;;;;;;5084213;28;20024;-60
2021/05/06 01:21:34;;;;;;;2.87;1.67;;;5.40;99.90;;;;;;5069545;28;20694;-58
2021/05/06 01:24:01;;;;;;;2.77;1.37;;;5.40;99.90;;;;;;5084822;28;20352;-58
2021/05/06 01:29:07;;;;;;;2.43;1.30;;;5.40;99.90;;;;;;5069387;28;20373;-59
2021/05/06 01:31:36;;;;;;;5.27;1.77;;;5.40;99.90;;;;;;5069536;28;20326;-59
2021/05/06 01:34:16;;;;;;;1.20;0.70;;;5.30;99.90;;;;;;5055243;28;20293;-59
2021/05/06 01:36:48;;;;;;;1.97;1.00;;;5.40;99.90;;;;;;5068809;28;20528;-58
2021/05/06 01:42:06;;;;;;;3.13;1.53;;;5.40;99.90;;;;;;5069216;28;20750;-58
2021/05/06 02:00:01;;;;;;;0.90;0.60;;;5.30;99.90;;;;;;5068662;28;20066;-59
2021/05/06 02:02:29;;;;;;;4.23;0.93;;;5.40;99.90;;;;;;5068766;28;20388;-59
2021/05/06 02:04:55;;;;;;;2.23;1.10;;;5.40;99.90;;;;;;5067674;28;21874;-58
2021/05/06 02:07:20;;;;;;;3.93;0.83;;;5.40;99.90;;;;;;5068544;28;20035;-58
2021/05/06 02:09:48;;;;;;;2.13;0.70;;;5.50;99.90;;;;;;5083494;28;20040;-58
2021/05/06 02:12:17;;;;;;;1.97;0.50;;;5.50;99.90;;;;;;5068247;28;20107;-59
2021/05/06 02:14:50;;;;;;;1.23;0.50;;;5.50;99.90;;;;;;5069020;28;20549;-58
2021/05/06 02:17:16;;;;;;;2.10;0.70;;;5.50;99.90;;;;;;5067573;28;20158;-58
2021/05/06 02:19:47;;;;;;;1.63;0.60;;;5.50;99.90;;;;;;5068345;28;20102;-58
2021/05/06 02:22:14;;;;;;;1.07;0.33;;;5.60;99.90;;;;;;5068303;28;21529;-59
2021/05/06 02:24:40;;;;;;;2.57;0.63;;;5.60;99.90;;;;;;5068111;28;20028;-58
2021/05/06 02:27:11;;;;;;;2.97;0.80;;;5.50;99.90;;;;;;5066269;28;20032;-58
2021/05/06 02:29:41;;;;;;;2.13;1.00;;;5.60;99.90;;;;;;5067187;28;20032;-59
2021/05/06 02:32:09;;;;;;;1.40;0.70;;;5.50;99.90;;;;;;5068669;28;20033;-58
2021/05/06 02:34:35;;;;;;;1.83;0.97;;;5.50;99.90;;;;;;5068647;28;20376;-59
2021/05/06 02:37:04;;;;;;;1.50;0.57;;;5.60;99.90;;;;;;5067994;28;20028;-58
2021/05/06 02:39:29;;;;;;;1.50;0.80;;;5.60;99.90;;;;;;5068107;28;20037;-59
2021/05/06 02:41:55;;;;;;;2.03;0.37;;;5.70;99.90;;;;;;5068518;28;20041;-59
2021/05/06 02:44:23;;;;;;;4.27;0.67;;;5.70;99.90;;;;;;5083485;28;20056;-59
2021/05/06 02:46:51;;;;;;;4.43;0.70;;;5.80;99.90;;;;;;5065222;28;20028;-59
2021/05/06 02:49:17;;;;;;;1.10;0.57;;;5.80;99.90;;;;;;5065781;28;20043;-59
2021/05/06 02:51:50;;;;;;;1.27;0.73;;;5.90;99.90;;;;;;5086449;28;20046;-59
2021/05/06 02:54:19;;;;;;;1.13;0.80;;;5.90;99.90;;;;;;5071614;28;20025;-59
2021/05/06 02:57:08;;;;;;;1.27;0.70;;;5.90;99.90;;;;;;5070416;28;20044;-59
2021/05/06 03:05:03;;;;;;;1.77;1.03;;;5.90;99.90;;;;;;5071765;28;20530;-59
2021/05/06 03:07:30;;;;;;;3.87;1.67;;;5.90;99.90;;;;;;5071362;28;20032;-59
2021/05/06 03:10:14;;;;;;;4.07;2.37;;;5.80;99.90;;;;;;5070869;28;20020;-59
2021/05/06 03:13:00;;;;;;;3.77;1.80;;;5.80;99.90;;;;;;5069709;28;20024;-59
2021/05/06 03:23:22;;;;;;;4.30;2.10;;;5.70;99.90;;;;;;5069536;28;20043;-59
2021/05/06 03:25:48;;;;;;;6.57;2.50;;;5.70;99.90;;;;;;5070116;28;20092;-58
2021/05/06 03:28:25;;;;;;;5.93;2.27;;;5.70;99.90;;;;;;5085547;28;20567;-59
2021/05/06 04:16:52;;;;;;;2.03;1.20;;;5.90;99.90;;;;;;5070231;28;20377;-58
2021/05/06 04:27:13;;;;;;;4.70;0.57;;;6.00;99.90;;;;;;5067696;28;20376;-59
2021/05/06 04:37:53;;;;;;;0.60;0.50;;;6.20;99.90;;;;;;5067757;28;20120;-58
2021/05/06 04:43:43;;;;;;;2.13;0.40;;;6.30;99.90;;;;;;5068036;28;20040;-59
2021/05/06 04:56:42;;;;;;;2.17;0.80;;;6.40;99.90;;;;;;5066575;28;20034;-59
2021/05/06 04:59:29;;;;;;;3.60;0.47;;;6.50;99.90;;;;;;5081435;28;20029;-59
2021/05/06 05:04:41;;;;;;;5.93;0.60;;;6.60;99.90;;;;;;5067738;28;20114;-58
2021/05/06 05:07:16;;;;;;;5.17;1.13;;;6.70;99.90;;;;;;5083289;28;20032;-59
2021/05/06 05:17:50;;;;;;;1.73;0.50;;;7.10;99.90;;;;;;5066373;28;20029;-59
2021/05/06 05:25:38;;;;;;;0.90;0.60;;;7.30;99.90;;;;;;5065620;28;20089;-59
2021/05/06 05:28:07;;;;;;;3.87;1.20;;;7.40;99.90;;;;;;5069142;28;20107;-59
2021/05/06 05:30:36;;;;;;;1.63;1.00;;;7.40;99.90;;;;;;5047730;28;20365;-60
2021/05/06 05:33:12;;;;;;;2.30;0.73;;;7.50;99.90;;;;;;5065590;28;20024;-60
2021/05/06 05:35:40;;;;;;;2.43;0.70;;;7.50;99.90;;;;;;5063323;28;20048;-59
2021/05/06 05:41:02;;;;;;;1.23;0.70;;;7.70;99.90;;;;;;5064747;28;21946;-59
2021/05/06 05:56:36;;;;;;;5.83;1.10;;;7.80;99.90;;;;;;5065218;28;20330;-59
2021/05/06 05:59:01;;;;;;;4.53;1.20;;;7.80;99.90;;;;;;5064906;28;20024;-58
2021/05/06 06:01:28;;;;;;;4.13;1.10;;;7.80;99.90;;;;;;5063869;28;20056;-58
2021/05/06 06:03:56;;;;;;;7.70;2.00;;;7.80;99.90;;;;;;5063241;28;20027;-59
2021/05/06 06:06:22;;;;;;;3.47;1.80;;;7.80;99.90;;;;;;5082811;28;20706;-58
2021/05/06 06:08:50;;;;;;;4.77;1.50;;;7.90;99.90;;;;;;5065023;28;20700;-59
2021/05/06 06:11:18;;;;;;;3.93;1.73;;;7.90;99.90;;;;;;5065144;28;20048;-58
2021/05/06 06:13:50;;;;;;;2.83;1.20;;;8.00;99.90;;;;;;5066082;28;20028;-58
2021/05/06 06:16:28;;;;;;;4.18;1.15;;;7.90;99.90;;;;;;5063542;28;20082;-60
2021/05/06 06:18:55;;;;;;;3.63;1.80;;;7.90;99.90;;;;;;5064342;28;20116;-59
2021/05/06 06:24:03;;;;;;;3.70;1.70;;;8.00;99.90;;;;;;5063973;28;20169;-58
2021/05/06 06:26:29;;;;;;;2.17;1.43;;;8.00;99.90;;;;;;5064456;28;20040;-59
2021/05/06 06:29:01;;;;;;;7.97;1.70;;;8.00;99.90;;;;;;5064837;28;20032;-59
2021/05/06 06:31:37;;;;;;;2.17;1.15;;;8.10;99.90;;;;;;5064501;28;20043;-59
2021/05/06 06:34:05;;;;;;;3.67;1.50;;;8.10;99.90;;;;;;5064676;28;20024;-58
2021/05/06 06:36:31;;;;;;;5.63;1.50;;;8.10;99.90;;;;;;5064111;28;20082;-59
2021/05/06 06:38:59;;;;;;;3.27;1.10;;;8.20;99.90;;;;;;5080803;28;20036;-58
2021/05/06 06:41:25;;;;;;;2.30;1.03;;;8.30;99.90;;;;;;5080734;28;20514;-60
2021/05/06 06:43:53;;;;;;;3.00;1.30;;;8.40;99.90;;;;;;5062807;28;20066;-59
2021/05/06 06:46:20;;;;;;;4.53;1.10;;;8.40;99.90;;;;;;5065120;28;20029;-58
2021/05/06 06:48:46;;;;;;;3.20;1.03;;;8.40;99.90;;;;;;5064848;28;20054;-58
2021/05/06 06:51:15;;;;;;;2.03;1.30;;;8.40;99.90;;;;;;5080748;28;20147;-58
2021/05/06 06:53:41;;;;;;;3.77;1.20;;;8.50;99.90;;;;;;5064400;28;20120;-58
2021/05/06 06:56:07;;;;;;;2.50;1.10;;;8.50;99.90;;;;;;5065557;28;20069;-58
2021/05/06 06:58:33;;;;;;;3.30;1.20;;;8.60;99.90;;;;;;5064823;28;20028;-59
2021/05/06 07:01:01;;;;;;;3.60;0.90;;;8.80;99.90;;;;;;5064491;28;20086;-58
2021/05/06 07:03:26;;;;;;;3.53;1.60;;;8.80;99.90;;;;;;5046714;28;20472;-58
2021/05/06 07:05:52;;;;;;;2.97;1.00;;;8.80;99.90;;;;;;5064758;28;20091;-58
2021/05/06 07:08:26;;;;;;;4.50;1.53;;;8.90;99.90;;;;;;5080632;28;20040;-60
2021/05/06 07:10:56;;;;;;;1.70;1.10;;;9.00;99.90;;;;;;5079415;28;20028;-58
2021/05/06 07:13:25;;;;;;;4.00;1.27;;;9.10;99.90;;;;;;5063355;28;20032;-59
2021/05/06 07:15:52;;;;;;;4.60;1.00;;;9.10;99.70;;;;;;5064507;28;20487;-58
2021/05/06 07:18:21;;;;;;;7.73;1.60;;;9.10;99.50;;;;;;5065128;28;20032;-58
2021/05/06 07:20:48;;;;;;;3.07;1.30;;;9.00;99.90;;;;;;5064818;28;21856;-59
2021/05/06 07:23:19;;;;;;;1.73;0.83;;;9.00;99.50;;;;;;5080471;28;20429;-58
2021/05/06 07:25:50;;;;;;;2.40;1.10;;;8.90;99.40;;;;;;5063546;28;20368;-59
2021/05/06 07:28:24;;;;;;;4.67;1.50;;;9.00;99.50;;;;;;5079965;28;20461;-58
2021/05/06 07:30:53;;;;;;;4.07;1.20;;;9.20;98.90;;;;;;5064957;28;20098;-59
2021/05/06 07:33:19;;;;;;;7.40;1.00;;;9.30;99.40;;;;;;5064677;28;20713;-59
2021/05/06 07:35:45;;;;;;;3.57;0.93;;;9.40;98.00;;;;;;5064346;28;20029;-59
2021/05/06 07:38:13;;;;;;;3.30;0.90;;;9.50;97.60;;;;;;5066389;28;20387;-58
2021/05/06 07:40:43;;;;;;;2.43;0.73;;;9.40;96.50;;;;;;5068378;28;20709;-58
2021/05/06 07:43:10;;;;;;;2.13;0.80;;;9.60;97.40;;;;;;5068820;28;20129;-59
2021/05/06 07:45:38;;;;;;;3.77;0.67;;;9.80;95.80;;;;;;5067378;28;21876;-58
2021/05/06 07:48:04;;;;;;;1.50;0.50;;;9.90;94.80;;;;;;5068567;28;20068;-58
2021/05/06 07:50:30;;;;;;;0.67;0.40;;;9.90;93.80;;;;;;5065942;28;20737;-58
2021/05/06 07:53:07;;;;;;;2.87;1.07;;;10.00;94.00;;;;;;5067886;28;20099;-59
2021/05/06 07:55:34;;;;;;;0.80;0.60;;;10.20;93.60;;;;;;5083410;28;20126;-58
2021/05/06 07:58:03;;;;;;;3.43;0.50;;;10.30;93.20;;;;;;5067558;28;20103;-58
2021/05/06 08:00:28;;;;;;;2.57;0.80;;;10.30;93.50;;;;;;5083302;28;20430;-58
2021/05/06 08:02:57;;;;;;;4.60;0.67;;;10.40;93.50;;;;;;5068256;28;20190;-59
2021/05/06 08:05:24;;;;;;;2.63;0.70;;;10.30;92.90;;;;;;5066726;28;20445;-58
2021/05/06 08:07:50;;;;;;;1.90;0.83;;;10.30;92.80;;;;;;5067157;28;20036;-58
2021/05/06 08:10:17;;;;;;;1.87;0.50;;;10.50;91.70;;;;;;5067961;28;20060;-58
2021/05/06 08:12:46;;;;;;;1.00;0.60;;;10.70;90.90;;;;;;5067101;28;20086;-58
2021/05/06 08:15:14;;;;;;;2.40;0.40;;;10.60;90.70;;;;;;5067530;28;20028;-58
2021/05/06 08:17:43;;;;;;;0.70;0.40;;;10.30;91.40;;;;;;5068205;28;20070;-58
2021/05/06 08:20:12;;;;;;;2.47;0.47;;;10.20;91.40;;;;;;5065636;28;20028;-58
2021/05/06 08:22:38;;;;;;;1.70;0.70;;;10.40;91.10;;;;;;5067007;28;20102;-59
2021/05/06 08:25:07;;;;;;;0.77;0.53;;;10.70;90.60;;;;;;5066045;28;20035;-58
2021/05/06 08:27:36;;;;;;;5.80;0.73;;;11.00;87.50;;;;;;5066922;28;20038;-58
2021/05/06 08:30:04;;;;;;;2.00;0.67;;;11.20;90.10;;;;;;5066429;28;20033;-59
2021/05/06 08:32:30;;;;;;;1.70;0.67;;;11.30;87.50;;;;;;5051857;28;20188;-58
2021/05/06 08:34:55;;;;;;;1.60;0.70;;;11.50;83.10;;;;;;5064254;28;20148;-58
2021/05/06 08:37:24;;;;;;;4.97;0.60;;;11.50;79.20;;;;;;5067390;28;20353;-58
2021/05/06 08:39:50;;;;;;;0.83;0.47;;;11.40;79.60;;;;;;5065348;28;20028;-59
2021/05/06 08:42:18;;;;;;;1.03;0.53;;;11.50;86.50;;;;;;5082956;28;20085;-58
2021/05/06 08:44:46;;;;;;;0.93;0.30;;;11.50;86.20;;;;;;5066713;28;20737;-58
2021/05/06 08:47:21;;;;;;;5.50;0.90;;;11.50;81.90;;;;;;5067053;28;20405;-59
2021/05/06 08:49:49;;;;;;;2.20;0.40;;;11.40;82.30;;;;;;5065662;28;20126;-59
2021/05/06 08:52:19;;;;;;;1.90;0.50;;;11.50;82.10;;;;;;5067029;28;20062;-59
2021/05/06 08:54:50;;;;;;;5.97;0.50;;;11.50;78.70;;;;;;5065945;28;20077;-59
2021/05/06 08:57:18;;;;;;;0.97;0.30;;;11.50;77.10;;;;;;5066796;28;20105;-59
2021/05/06 08:59:43;;;;;;;2.33;0.83;;;11.50;76.70;;;;;;5082651;28;20048;-59
2021/05/06 09:02:12;;;;;;;3.83;0.50;;;11.70;79.40;;;;;;5065954;28;20052;-59
2021/05/06 09:04:43;;;;;;;2.87;0.80;;;12.10;74.90;;;;;;5052221;28;20034;-59
2021/05/06 09:07:11;;;;;;;0.83;0.20;;;12.30;71.00;;;;;;5082162;28;20043;-59
2021/05/06 09:09:46;;;;;;;2.10;0.40;;;12.40;71.90;;;;;;5082533;28;20039;-59
2021/05/06 09:12:11;;;;;;;0.80;0.40;;;12.40;70.50;;;;;;5067143;28;20421;-58
2021/05/06 09:14:41;;;;;;;2.00;0.40;;;11.80;71.40;;;;;;5066770;28;20044;-60
2021/05/06 09:17:40;;;;;;;0.33;0.20;;;11.60;74.30;;;;;;5065410;28;20576;-59
2021/05/06 09:20:17;;;;;;;2.00;0.47;;;11.40;76.00;;;;;;5082484;28;20063;-59
2021/05/06 09:22:59;;;;;;;0.67;0.50;;;11.50;76.80;;;;;;5065844;28;20642;-60
2021/05/06 09:25:36;;;;;;;0.70;0.30;;;11.60;75.30;;;;;;5081976;28;20476;-60
2021/05/06 09:28:03;;;;;;;1.60;0.70;;;11.60;74.90;;;;;;5065867;28;20119;-60
2021/05/06 09:30:34;;;;;;;3.63;0.40;;;11.60;73.90;;;;;;5066108;28;20033;-59
2021/05/06 09:33:29;;;;;;;1.10;0.60;;;11.60;72.20;;;;;;5065651;28;20023;-59
2021/05/06 09:35:55;;;;;;;2.13;0.47;;;11.60;70.80;;;;;;5065831;28;20155;-59
2021/05/06 09:38:36;;;;;;;0.40;0.20;;;11.70;68.90;;;;;;5065069;28;20028;-60
2021/05/06 09:41:04;;;;;;;1.80;0.30;;;11.60;68.30;;;;;;5065259;28;20024;-60
2021/05/06 09:43:38;;;;;;;3.03;1.30;;;11.80;69.30;;;;;;5064232;28;20036;-59
2021/05/06 09:46:21;;;;;;;0.30;0.20;;;12.00;66.00;;;;;;5065887;28;20025;-59
2021/05/06 09:48:53;;;;;;;;;;;12.20;63.00;;;;;;5065860;28;20155;-58
2021/05/06 09:51:32;;;;;;;2.28;0.30;;;11.90;61.40;;;;;;5065831;28;19920;-58
2021/05/06 09:54:01;;;;;;;0.60;0.20;;;11.70;61.40;;;;;;5066155;28;20748;-59
2021/05/06 09:56:27;;;;;;;1.10;0.73;;;12.10;61.80;;;;;;5065643;28;20565;-59
2021/05/06 09:58:55;;;;;;;2.60;0.63;;;12.50;59.60;;;;;;5065282;28;20063;-59
2021/05/06 10:01:23;;;;;;;0.93;0.30;;;12.50;59.50;;;;;;5065095;28;20053;-58
2021/05/06 10:03:52;;;;;;;2.20;0.20;;;12.60;59.60;;;;;;5080811;28;20036;-59
2021/05/06 10:06:21;;;;;;;1.27;0.30;;;12.60;59.70;;;;;;5064249;28;20035;-59
2021/05/06 10:08:47;;;;;;;0.87;0.37;;;12.60;59.60;;;;;;5063117;28;20040;-59
2021/05/06 10:11:17;;;;;;;1.20;0.60;;;12.40;59.90;;;;;;5081729;28;20035;-59
2021/05/06 10:13:47;;;;;;;2.87;0.30;;;12.40;61.60;;;;;;5065259;28;20020;-58
2021/05/06 10:16:15;;;;;;;0.20;0.10;;;12.50;60.60;;;;;;5065147;28;20548;-59
2021/05/06 10:18:44;;;;;;;1.87;0.50;;;12.60;57.80;;;;;;5064641;28;20609;-58
2021/05/06 10:21:15;;;;;;;0.47;0.27;;;12.60;57.20;;;;;;5064991;28;20066;-60
2021/05/06 10:23:50;;;;;;;0.70;0.27;;;12.80;58.60;;;;;;5065906;28;20435;-60
2021/05/06 10:26:21;;;;;;;0.90;0.30;;;13.00;58.40;;;;;;5065325;28;20433;-59
2021/05/06 10:28:51;;;;;;;1.00;0.23;;;13.30;57.40;;;;;;5064438;28;20036;-60
2021/05/06 10:31:17;;;;;;;3.67;0.43;;;;;;;;;;5065371;28;20338;-59
2021/05/06 10:33:44;;;;;;;2.50;0.70;;;13.80;53.50;;;;;;5065480;28;20107;-60
2021/05/06 10:36:10;;;;;;;1.77;0.40;;;13.90;53.40;;;;;;5065123;28;20414;-58
2021/05/06 10:38:39;;;;;;;2.87;0.40;;;14.00;53.70;;;;;;5065333;28;20114;-58
2021/05/06 10:41:29;;;;;;;0.83;0.33;;;14.20;54.20;;;;;;5065606;28;20070;-58
2021/05/06 10:43:59;;;;;;;0.43;0.30;;;14.30;53.80;;;;;;5064684;28;20038;-58
2021/05/06 10:46:46;;;;;;;0.80;0.20;;;14.20;54.00;;;;;;5065680;28;20050;-58
2021/05/06 10:49:12;;;;;;;2.43;0.53;;;14.20;54.80;;;;;;5065226;28;20436;-58
2021/05/06 10:51:44;;;;;;;1.87;0.77;;;14.50;53.60;;;;;;5064491;28;20041;-58
2021/05/06 10:54:25;;;;;;;1.27;0.30;;;14.70;52.70;;;;;;5065767;28;20025;-58
2021/05/06 10:57:01;;;;;;;1.50;0.40;;;14.90;52.20;;;;;;5064001;28;20486;-59
2021/05/06 10:59:28;;;;;;;1.00;0.40;;;14.70;51.10;;;;;;5063219;28;20020;-58
2021/05/06 11:01:55;;;;;;;0.87;0.33;;;14.40;51.30;;;;;;5064402;28;20492;-58
2021/05/06 11:04:36;;;;;;;1.03;0.53;;;14.20;52.80;;;;;;5064798;28;20252;-58
2021/05/06 11:07:19;;;;;;;0.40;0.40;;;14.20;53.70;;;;;;5064343;28;20033;-58
2021/05/06 11:09:50;;;;;;;0.50;0.23;;;14.10;51.40;;;;;;5063753;28;20032;-58
2021/05/06 11:12:19;;;;;;;0.37;0.20;;;13.90;51.60;;;;;;5066178;28;20037;-58
2021/05/06 11:15:03;;;;;;;1.33;0.20;;;14.00;52.20;;;;;;5068151;28;20053;-58
2021/05/06 11:17:35;;;;;;;1.10;0.50;;;;;;;;;;5067717;28;20025;-58
2021/05/06 11:20:10;;;;;;;0.45;0.20;;;13.60;51.30;;;;;;5069498;28;20024;-59
2021/05/06 11:22:43;;;;;;;1.40;0.20;;;13.60;52.20;;;;;;5069749;28;20051;-58
2021/05/06 11:25:28;;;;;;;0.50;0.20;;;13.60;52.90;;;;;;5066524;28;20020;-59
2021/05/06 11:27:58;;;;;;;0.93;0.30;;;14.00;52.90;;;;;;5067842;28;20488;-59
2021/05/06 11:30:36;;;;;;;6.07;1.00;;;14.20;52.10;;;;;;5066918;28;20062;-59
2021/05/06 11:33:20;;;;;;;0.87;0.40;;;14.00;50.70;;;;;;5066812;28;20024;-58
2021/05/06 11:36:11;;;;;;;0.30;0.10;;;14.10;51.20;;;;;;5067961;28;20035;-58
2021/05/06 11:38:40;;;;;;;0.20;0.20;;;14.30;51.40;;;;;;5068258;28;20031;-59
2021/05/06 11:41:26;;;;;;;1.17;0.20;;;14.50;50.30;;;;;;5067450;28;20036;-59
2021/05/06 11:43:55;;;;;;;0.83;0.20;;;14.50;50.40;;;;;;5069098;28;20035;-58
2021/05/06 11:46:28;;;;;;;2.17;0.50;;;14.60;49.40;;;;;;5068256;28;20033;-59
2021/05/06 11:48:58;;;;;;;0.70;0.20;;;14.50;50.10;;;;;;5065450;28;20029;-58
2021/05/06 11:51:59;;;;;;;1.63;0.50;;;14.50;50.80;;;;;;5068493;28;20464;-59
2021/05/06 11:54:25;;;;;;;1.90;0.40;;;14.60;50.30;;;;;;5059613;28;20075;-59
2021/05/06 11:56:58;;;;;;;0.87;0.23;;;14.80;49.30;;;;;;5068288;28;20159;-59
2021/05/06 11:59:28;;;;;;;1.13;0.23;;;15.10;49.90;;;;;;5068349;28;21929;-58
2021/05/06 12:01:54;;;;;;;0.30;0.10;;;15.00;48.20;;;;;;5067593;28;20058;-58
2021/05/06 12:04:24;;;;;;;1.93;0.60;;;14.90;48.30;;;;;;5067555;28;20074;-58
2021/05/06 12:06:51;;;;;;;2.17;0.23;;;14.70;48.60;;;;;;5084503;28;20051;-59
2021/05/06 12:09:31;;;;;;;1.67;0.23;;;14.90;47.90;;;;;;5068042;28;20086;-59
2021/05/06 12:11:57;;;;;;;1.53;0.33;;;15.40;47.30;;;;;;5066755;28;20151;-59
2021/05/06 12:14:48;;;;;;;0.43;0.30;;;15.70;46.90;;;;;;5068043;28;20026;-58
2021/05/06 12:17:21;;;;;;;2.37;0.27;;;16.10;46.40;;;;;;5082379;28;20889;-58
2021/05/06 12:19:50;;;;;;;2.83;0.30;;;16.30;44.30;;;;;;5066940;28;20807;-59
2021/05/06 12:22:19;;;;;;;2.23;0.40;;;16.30;44.60;;;;;;5067049;28;20028;-60
2021/05/06 12:24:49;;;;;;;0.67;0.23;;;16.60;45.80;;;;;;5066803;28;20032;-59
2021/05/06 12:27:17;;;;;;;0.87;0.20;;;16.60;45.80;;;;;;5066276;28;20140;-59
2021/05/06 12:29:48;;;;;;;1.70;0.60;;;16.60;44.70;;;;;;5067309;28;20082;-58
2021/05/06 12:32:23;;;;;;;6.67;0.40;;;16.60;45.00;;;;;;5066381;28;20028;-58
2021/05/06 12:34:49;;;;;;;2.50;0.50;;;15.90;45.70;;;;;;5067535;28;20078;-58
2021/05/06 12:37:16;;;;;;;0.97;0.40;;;15.80;47.20;;;;;;5064397;28;20492;-58
2021/05/06 12:39:42;;;;;;;1.20;0.30;;;16.00;45.60;;;;;;5066888;28;20035;-58
2021/05/06 12:42:09;;;;;;;1.80;0.40;;;16.00;45.00;;;;;;5066399;28;20473;-58
2021/05/06 12:44:41;;;;;;;1.10;0.20;;;16.20;44.90;;;;;;5068953;28;20029;-58
2021/05/06 12:47:34;;;;;;;0.77;0.20;;;16.20;45.30;;;;;;5066891;28;20123;-58
2021/05/06 12:50:11;;;;;;;0.85;0.30;;;16.60;45.00;;;;;;5063895;28;20452;-58
2021/05/06 12:52:46;;;;;;;0.35;0.17;;;17.40;43.80;;;;;;5066351;28;20028;-58
2021/05/06 12:55:25;;;;;;;1.75;1.08;;;17.80;41.90;;;;;;5082482;28;20024;-58
2021/05/06 12:58:14;;;;;;;3.40;0.40;;;17.90;42.40;;;;;;5066992;28;20106;-59
2021/05/06 13:01:04;;;;;;;1.33;0.63;;;18.10;42.80;;;;;;5065850;28;20097;-57
2021/05/06 13:03:35;;;;;;;2.40;0.40;;;18.00;42.70;;;;;;5066633;28;20039;-59
2021/05/06 13:06:09;;;;;;;3.35;0.60;;;17.60;42.60;;;;;;5065684;28;20028;-59
2021/05/06 13:08:39;;;;;;;1.05;0.40;;;17.20;43.70;;;;;;5066134;28;20774;-59
2021/05/06 13:11:11;;;;;;;3.20;0.57;;;17.00;45.20;;;;;;5066184;28;20024;-60
2021/05/06 13:13:43;;;;;;;2.17;0.32;;;16.70;44.40;;;;;;5081805;28;20020;-58
2021/05/06 13:16:11;;;;;;;4.87;0.63;;;16.50;45.10;;;;;;5066651;28;20478;-59
2021/05/06 13:18:40;;;;;;;4.93;0.43;;;16.30;46.30;;;;;;5066458;28;20043;-58
2021/05/06 13:21:20;;;;;;;0.87;0.37;;;15.90;45.90;;;;;;5065889;28;20044;-58
2021/05/06 13:23:46;;;;;;;0.37;0.27;;;15.60;46.00;;;;;;5066282;28;20033;-58
2021/05/06 13:26:14;;;;;;;0.47;0.30;;;15.30;46.90;;;;;;5066517;28;20039;-58
2021/05/06 13:28:46;;;;;;;3.37;0.60;;;15.40;48.10;;;;;;5065894;28;20032;-59
2021/05/06 13:31:18;;;;;;;2.63;0.32;;;15.40;49.30;;;;;;5065713;28;20709;-59
2021/05/06 13:33:46;;;;;;;4.30;0.40;;;15.30;48.50;;;;;;5068527;28;20051;-58
2021/05/06 13:36:21;;;;;;;1.20;0.43;;;15.10;48.60;;;;;;5082209;28;20021;-59
2021/05/06 13:38:55;;;;;;;2.43;0.33;;;14.80;49.40;;;;;;5065514;28;20030;-59
2021/05/06 13:41:27;;;;;;;3.37;0.43;;;14.60;49.60;;;;;;5081601;28;21795;-58
2021/05/06 13:43:54;;;;;;;0.98;0.30;;;14.50;49.70;;;;;;5065770;28;20071;-59
2021/05/06 13:46:21;;;;;;;3.10;0.20;;;14.20;50.00;;;;;;5064475;28;20414;-58
2021/05/06 13:48:49;;;;;;;3.70;0.50;;;14.10;52.00;;;;;;5065675;28;20043;-58
2021/05/06 13:51:16;;;;;;;1.97;0.30;;;13.80;55.20;;;;;;5067451;28;20067;-59
2021/05/06 13:53:45;;;;;;;4.03;0.57;;;13.60;58.20;;;;;;5065225;28;20127;-58
2021/05/06 13:56:16;;;;;;;1.30;0.67;;;13.50;61.40;;;;;;5065809;28;20640;-58
2021/05/06 13:58:45;;;;;;;3.27;0.70;;;13.10;64.50;;;;;;5063722;28;20393;-59
2021/05/06 14:01:15;;;;;;;0.90;0.50;;;12.90;64.80;;;;;;5064178;28;20113;-59
2021/05/06 14:03:40;;;;;;;4.83;0.40;;;12.80;67.10;;;;;;5065725;28;20062;-58
2021/05/06 14:06:07;;;;;;;1.47;0.40;;;12.80;66.90;;;;;;5064768;28;20025;-59
2021/05/06 14:08:38;;;;;;;1.80;0.40;;;12.80;71.50;;;;;;5065536;28;20029;-58
2021/05/06 14:11:05;;;;;;;1.73;0.77;;;12.80;72.40;;;;;;5081077;28;20083;-58
2021/05/06 14:13:31;;;;;;;1.70;0.40;;;12.70;68.30;;;;;;5065060;28;20024;-58
2021/05/06 14:16:00;;;;;;;1.70;0.80;;;12.60;67.10;;;;;;5067492;28;20028;-58
2021/05/06 14:18:29;;;;;;;0.60;0.60;;;12.60;72.10;;;;;;5065235;28;20024;-58
2021/05/06 14:21:00;;;;;;;1.70;0.60;;;12.50;69.10;;;;;;5064729;28;20039;-60
2021/05/06 14:23:37;;;;;;;1.42;0.55;;;12.50;79.10;;;;;;5065758;28;20957;-59
2021/05/06 14:26:06;;;;;;;1.77;0.80;;;12.50;77.10;;;;;;5065656;28;20036;-59
2021/05/06 14:28:33;;;;;;;4.10;0.50;;;12.40;74.70;;;;;;5080509;28;20036;-58
2021/05/06 14:30:59;;;;;;;2.60;0.60;;;12.40;74.30;;;;;;5065820;28;20040;-58
2021/05/06 14:33:27;;;;;;;2.33;0.80;;;12.20;72.60;;;;;;5061353;28;20039;-59
2021/05/06 14:35:53;;;;;;;2.10;0.73;;;12.20;74.50;;;;;;5065066;28;20036;-58
2021/05/06 14:38:18;;;;;;;4.00;0.77;;;12.20;74.80;;;;;;5065542;28;20037;-59
2021/05/06 14:40:46;;;;;;;1.13;0.67;;;12.10;75.20;;;;;;5065470;28;20114;-58
2021/05/06 14:43:12;;;;;;;2.80;0.40;;;12.20;77.60;;;;;;5064977;28;20043;-58
2021/05/06 14:45:38;;;;;;;1.77;0.57;;;12.40;74.10;;;;;;5065451;28;20514;-60
2021/05/06 14:48:05;;;;;;;1.90;0.57;;;12.40;71.40;;;;;;5080223;28;20038;-58
2021/05/06 14:50:33;;;;;;;0.87;0.50;;;12.50;73.10;;;;;;5079985;28;20071;-58
2021/05/06 14:52:59;;;;;;;3.37;0.60;;;12.40;70.80;;;;;;5062950;28;20462;-58
2021/05/06 14:55:27;;;;;;;1.00;0.47;;;12.20;70.40;;;;;;5079491;28;20033;-58
2021/05/06 14:57:53;;;;;;;1.03;0.50;;;12.30;71.80;;;;;;5064141;28;20020;-58
2021/05/06 15:00:21;;;;;;;0.90;0.60;;;12.50;73.10;;;;;;5059742;28;20084;-60
2021/05/06 15:02:52;;;;;;;2.03;0.80;;;12.80;69.60;;;;;;5064427;28;20492;-59
2021/05/06 15:05:19;;;;;;;2.37;0.43;;;12.90;71.30;;;;;;5080548;28;20040;-59
2021/05/06 15:07:46;;;;;;;1.37;0.30;;;12.80;70.80;;;;;;5050456;28;20116;-59
2021/05/06 15:10:12;;;;;;;1.70;0.40;;;12.90;67.50;;;;;;5064413;28;20486;-59
2021/05/06 15:12:42;;;;;;;1.37;0.43;;;12.80;66.30;;;;;;5063812;28;20032;-59
2021/05/06 15:15:08;;;;;;;4.27;1.00;;;12.70;70.70;;;;;;5064554;28;20044;-59
2021/05/06 15:17:33;;;;;;;1.53;0.60;;;12.50;75.10;;;;;;5063834;28;20028;-58
2021/05/06 15:19:59;;;;;;;0.67;0.30;;;12.40;76.10;;;;;;5063942;28;20028;-59
2021/05/06 15:22:25;;;;;;;2.37;0.90;;;12.30;76.30;;;;;;5064786;28;20043;-58
2021/05/06 15:24:52;;;;;;;3.80;0.60;;;12.20;81.10;;;;;;5063368;28;20032;-59
2021/05/06 15:27:20;;;;;;;3.93;0.50;;;12.10;80.50;;;;;;5064182;28;20147;-58
2021/05/06 15:29:45;;;;;;;2.07;0.70;;;12.00;82.80;;;;;;5064698;28;20102;-59
2021/05/06 15:32:13;;;;;;;1.43;0.60;;;12.00;86.40;;;;;;5063985;28;20591;-59
2021/05/06 15:34:39;;;;;;;4.10;1.00;;;12.00;79.80;;;;;;5064377;28;20924;-59
2021/05/06 15:37:05;;;;;;;1.47;0.80;;;11.90;81.00;;;;;;5065046;28;20040;-59
2021/05/06 15:39:31;;;;;;;0.83;0.50;;;11.90;83.50;;;;;;5064456;28;20051;-59
2021/05/06 15:41:59;;;;;;;1.03;0.50;;;11.70;87.10;;;;;;5064685;28;20572;-59
2021/05/06 15:44:27;;;;;;;0.67;0.50;;;11.60;90.40;;;;;;5063523;28;20033;-59
2021/05/06 15:46:58;;;;;;;0.93;0.80;;;11.40;91.00;;;;;;5063902;28;20622;-58
2021/05/06 15:49:32;;;;;;;3.80;0.80;;;11.30;93.30;;;;;;5063462;28;20105;-58
2021/05/06 15:51:59;;;;;;;4.63;0.77;;;11.10;91.10;;;;;;5064567;28;20035;-58
2021/05/06 15:54:27;;;;;;;2.27;0.60;;;10.90;90.70;;;;;;5063911;28;20024;-58
2021/05/06 15:56:55;;;;;;;3.10;0.80;;;10.90;93.60;;;;;;5062994;28;20029;-57
2021/05/06 15:59:22;;;;;;;5.03;1.33;;;10.90;92.00;;;;;;5067441;28;20040;-58
2021/05/06 16:01:48;;;;;;;0.97;0.60;;;10.80;93.90;;;;;;5067874;28;20086;-58
2021/05/06 16:04:17;;;;;;;0.90;0.67;;;10.80;96.60;;;;;;5067162;28;20036;-59
2021/05/06 16:06:43;;;;;;;1.83;0.87;;;10.70;97.70;;;;;;5082531;28;20059;-57
2021/05/06 16:09:13;;;;;;;1.87;0.80;;;10.70;99.60;;;;;;5066885;28;20544;-58
2021/05/06 16:11:39;;;;;;;2.43;0.97;;;10.70;99.90;;;;;;5083271;28;20036;-60
2021/05/06 16:14:05;;;;;;;5.17;0.83;;;10.70;99.90;;;;;;5065711;28;20024;-58
2021/05/06 16:16:31;;;;;;;1.30;0.60;;;10.70;99.90;;;;;;5065877;28;20047;-57
2021/05/06 16:19:00;;;;;;;1.70;0.80;;;10.50;99.70;;;;;;5067794;28;20028;-58
2021/05/06 16:21:27;;;;;;;5.33;0.80;;;10.40;99.50;;;;;;5067233;28;20032;-57
2021/05/06 16:23:57;;;;;;;3.27;0.87;;;10.30;99.90;;;;;;5063996;28;20075;-57
2021/05/06 16:26:25;;;;;;;3.10;1.13;;;10.30;99.90;;;;;;5066254;28;20140;-58
2021/05/06 16:28:50;;;;;;;7.67;0.90;;;10.10;99.90;;;;;;5066376;28;20374;-58
2021/05/06 16:31:16;;;;;;;3.57;1.30;;;10.20;99.90;;;;;;5066665;28;20078;-57